Time;durP1;ratioP1;P1;durP2;ratioP2;P2;SDS_P1;SDS_P2;PMS_P1;PMS_P2;Temp;Humidity;BMP_temperature;BMP_pressure;BME280_temperature;BME280_humidity;BME280_pressure;Samples;Min_cycle;Max_cycle;Signal;HPM_P1;HPM_P2
2023/04/21 00:00:19;;;;;;;6.90;4.70;;;15.30;96.70;;;;;;4963386;28;20568;-71
2023/04/21 00:02:48;;;;;;;5.45;4.43;;;15.20;96.70;;;;;;4962643;28;20039;-70
2023/04/21 00:05:16;;;;;;;7.03;5.32;;;15.20;96.70;;;;;;4964406;28;20058;-70
2023/04/21 00:07:46;;;;;;;6.38;4.90;;;15.10;96.70;;;;;;4962128;28;20049;-71
2023/04/21 00:10:14;;;;;;;5.43;4.40;;;15.10;96.70;;;;;;4962330;28;20390;-71
2023/04/21 00:12:42;;;;;;;4.90;4.40;;;15.20;96.70;;;;;;4961735;28;20046;-70
2023/04/21 00:15:11;;;;;;;6.47;4.25;;;15.30;96.70;;;;;;4964010;28;20073;-70
2023/04/21 00:17:39;;;;;;;5.82;4.47;;;15.30;96.70;;;;;;4963241;28;20134;-70
2023/04/21 00:20:09;;;;;;;5.15;3.97;;;15.20;96.70;;;;;;4961347;28;20424;-70
2023/04/21 00:22:37;;;;;;;5.65;3.80;;;15.10;96.70;;;;;;4961650;28;20050;-71
2023/04/21 00:25:07;;;;;;;6.82;4.30;;;15.10;96.70;;;;;;4962211;28;20051;-70
2023/04/21 00:27:35;;;;;;;6.68;3.67;;;15.20;96.70;;;;;;4961670;28;20042;-70
2023/04/21 00:30:05;;;;;;;4.00;3.65;;;15.20;96.70;;;;;;4961655;28;20043;-71
2023/04/21 00:32:36;;;;;;;4.53;3.80;;;15.20;96.70;;;;;;4960254;28;20051;-70
2023/04/21 00:35:05;;;;;;;4.97;3.47;;;15.10;96.70;;;;;;4956613;28;20603;-70
2023/04/21 00:37:36;;;;;;;4.68;3.58;;;15.00;96.70;;;;;;4965144;28;20408;-70
2023/04/21 00:40:07;;;;;;;3.95;3.55;;;14.90;96.70;;;;;;4964482;28;20101;-70
2023/04/21 00:42:35;;;;;;;6.90;4.07;;;15.00;96.70;;;;;;4962781;28;20074;-70
2023/04/21 00:45:04;;;;;;;3.90;3.28;;;15.00;96.70;;;;;;4962177;28;20405;-70
2023/04/21 00:47:32;;;;;;;3.97;3.47;;;15.00;96.70;;;;;;4945491;28;20062;-70
2023/04/21 00:50:00;;;;;;;3.95;3.20;;;14.90;96.70;;;;;;4963125;28;20047;-70
2023/04/21 00:52:29;;;;;;;3.75;3.05;;;14.90;96.70;;;;;;4944938;28;20059;-70
2023/04/21 00:54:58;;;;;;;3.67;3.00;;;14.90;96.70;;;;;;4962730;28;20133;-70
2023/04/21 00:57:30;;;;;;;4.38;2.92;;;15.00;96.70;;;;;;4961637;28;20444;-70
2023/04/21 00:59:58;;;;;;;3.53;3.00;;;14.90;96.70;;;;;;4960494;28;20073;-70
2023/04/21 01:02:27;;;;;;;3.80;2.80;;;15.00;96.70;;;;;;4961872;28;20377;-70
2023/04/21 01:04:56;;;;;;;5.68;2.70;;;15.00;96.70;;;;;;4962568;28;20619;-70
2023/04/21 01:07:25;;;;;;;3.63;3.05;;;15.00;96.70;;;;;;4944986;28;20061;-70
2023/04/21 01:09:55;;;;;;;4.80;3.28;;;15.00;96.70;;;;;;4963051;28;20047;-70
2023/04/21 01:12:24;;;;;;;5.38;3.20;;;14.80;96.70;;;;;;4963620;28;20712;-70
2023/04/21 01:14:53;;;;;;;3.75;3.13;;;14.80;96.70;;;;;;4962994;28;20030;-70
2023/04/21 01:17:22;;;;;;;4.82;3.55;;;14.70;96.70;;;;;;4962809;28;20117;-70
2023/04/21 01:19:52;;;;;;;5.85;3.55;;;14.70;96.70;;;;;;4966000;28;20046;-70
2023/04/21 01:22:22;;;;;;;4.07;3.33;;;14.70;96.70;;;;;;4961983;28;20050;-70
2023/04/21 01:24:50;;;;;;;5.80;4.10;;;14.70;96.70;;;;;;4962973;28;20049;-70
2023/04/21 01:27:20;;;;;;;5.53;3.92;;;14.70;96.70;;;;;;4945269;28;20643;-70
2023/04/21 01:29:50;;;;;;;4.72;3.75;;;14.60;96.70;;;;;;4961040;28;20058;-71
2023/04/21 01:32:20;;;;;;;4.63;4.00;;;14.60;96.70;;;;;;4963217;28;20169;-70
2023/04/21 01:35:01;;;;;;;5.32;4.10;;;14.50;96.70;;;;;;4960977;28;20051;-70
2023/04/21 01:37:32;;;;;;;7.43;4.32;;;14.50;96.70;;;;;;4957454;28;20055;-70
2023/04/21 01:40:04;;;;;;;5.35;4.20;;;14.50;96.70;;;;;;4959738;28;20078;-71
2023/04/21 01:42:35;;;;;;;5.28;3.72;;;14.40;96.70;;;;;;4961473;28;20047;-70
2023/04/21 01:45:04;;;;;;;3.50;3.20;;;14.40;96.70;;;;;;4962600;28;20125;-70
2023/04/21 01:47:32;;;;;;;4.55;3.30;;;14.40;96.70;;;;;;4964625;28;20583;-70
2023/04/21 01:50:00;;;;;;;3.53;3.22;;;14.60;96.70;;;;;;4962024;28;20053;-70
2023/04/21 01:52:29;;;;;;;5.15;3.42;;;14.60;96.70;;;;;;4963161;28;20046;-70
2023/04/21 01:54:58;;;;;;;6.03;4.47;;;14.60;96.70;;;;;;4966715;28;20046;-70
2023/04/21 01:57:27;;;;;;;4.65;4.18;;;14.40;96.70;;;;;;4946991;28;20050;-70
2023/04/21 01:59:56;;;;;;;4.55;3.55;;;14.40;96.70;;;;;;4962833;28;20110;-70
2023/04/21 02:02:24;;;;;;;5.22;4.03;;;14.40;96.70;;;;;;4964774;28;20129;-71
2023/04/21 02:04:52;;;;;;;4.43;3.97;;;14.40;96.70;;;;;;4965783;28;20125;-70
2023/04/21 02:07:20;;;;;;;6.68;4.25;;;14.40;96.70;;;;;;4947224;28;20124;-70
2023/04/21 02:09:50;;;;;;;4.40;4.00;;;14.30;96.70;;;;;;4966265;28;20073;-71
2023/04/21 02:12:18;;;;;;;4.65;3.65;;;14.20;96.70;;;;;;4981059;28;20121;-70
2023/04/21 02:14:47;;;;;;;3.78;3.38;;;14.00;96.70;;;;;;4964701;28;20062;-71
2023/04/21 02:17:15;;;;;;;3.75;2.92;;;14.10;96.70;;;;;;4989477;28;20405;-70
2023/04/21 02:19:43;;;;;;;3.08;2.78;;;14.00;96.70;;;;;;4964476;28;20097;-70
2023/04/21 02:22:11;;;;;;;2.90;2.60;;;14.00;96.70;;;;;;4986476;28;20039;-70
2023/04/21 02:24:39;;;;;;;2.92;2.53;;;14.00;96.70;;;;;;4963480;28;20106;-70
2023/04/21 02:27:09;;;;;;;3.40;2.95;;;13.90;96.70;;;;;;4961466;28;20050;-70
2023/04/21 02:29:37;;;;;;;4.38;2.78;;;14.00;96.70;;;;;;4964409;28;20039;-70
2023/04/21 02:32:07;;;;;;;2.38;2.17;;;14.00;96.70;;;;;;4947025;28;20058;-70
2023/04/21 02:34:51;;;;;;;3.08;2.20;;;14.00;96.70;;;;;;4949409;28;20162;-70
2023/04/21 02:37:19;;;;;;;2.90;2.60;;;14.00;96.70;;;;;;4964342;28;20092;-70
2023/04/21 02:39:54;;;;;;;2.30;2.10;;;14.10;96.70;;;;;;4966195;28;20101;-71
2023/04/21 02:42:25;;;;;;;2.38;2.15;;;14.20;96.70;;;;;;4963719;28;20511;-70
2023/04/21 02:44:54;;;;;;;4.05;2.45;;;14.20;96.70;;;;;;4988249;28;20053;-70
2023/04/21 02:47:22;;;;;;;2.55;2.35;;;14.10;96.70;;;;;;4966520;28;20053;-70
2023/04/21 02:49:50;;;;;;;3.08;2.15;;;14.10;96.70;;;;;;4965498;28;20042;-70
2023/04/21 02:52:18;;;;;;;3.50;2.45;;;14.10;96.70;;;;;;4963926;28;20038;-70
2023/04/21 02:54:46;;;;;;;2.45;2.20;;;14.00;96.70;;;;;;4965951;28;20564;-70
2023/04/21 02:57:13;;;;;;;3.88;2.33;;;14.00;96.70;;;;;;4964304;28;20125;-71
2023/04/21 02:59:43;;;;;;;2.42;2.22;;;13.90;96.70;;;;;;4963720;28;20054;-70
2023/04/21 03:02:11;;;;;;;1.92;1.83;;;13.90;96.70;;;;;;4966291;28;20046;-70
2023/04/21 03:04:39;;;;;;;2.47;2.28;;;14.00;96.70;;;;;;4959865;28;20047;-70
2023/04/21 03:07:12;;;;;;;3.08;2.00;;;13.90;96.70;;;;;;4958539;28;20070;-70
2023/04/21 03:09:44;;;;;;;2.50;1.77;;;13.90;96.70;;;;;;4960581;28;20053;-71
2023/04/21 03:12:13;;;;;;;2.00;1.80;;;13.90;96.70;;;;;;4963339;28;21138;-70
2023/04/21 03:14:43;;;;;;;2.28;1.80;;;13.80;96.70;;;;;;4965815;28;20046;-70
2023/04/21 03:17:11;;;;;;;1.80;1.70;;;13.80;96.70;;;;;;4963540;28;20055;-70
2023/04/21 03:19:39;;;;;;;2.47;1.67;;;13.90;96.70;;;;;;4960294;28;20043;-71
2023/04/21 03:22:07;;;;;;;3.03;1.73;;;13.90;96.70;;;;;;4956859;28;20057;-70
2023/04/21 03:24:35;;;;;;;2.10;1.83;;;13.80;96.70;;;;;;4957388;28;20038;-71
2023/04/21 03:27:05;;;;;;;3.00;1.70;;;13.70;96.70;;;;;;4960604;28;20050;-70
2023/04/21 03:29:34;;;;;;;3.45;1.80;;;13.70;96.70;;;;;;4962257;28;20035;-70
2023/04/21 03:32:04;;;;;;;3.55;1.70;;;13.70;96.70;;;;;;4961171;28;20583;-71
2023/04/21 03:34:32;;;;;;;2.22;2.03;;;13.70;96.70;;;;;;4961919;28;20043;-70
2023/04/21 03:37:04;;;;;;;2.30;2.03;;;13.70;96.70;;;;;;4941237;28;20097;-70
2023/04/21 03:39:32;;;;;;;3.22;2.30;;;13.70;96.70;;;;;;4957194;28;20046;-70
2023/04/21 03:42:01;;;;;;;3.13;2.28;;;13.70;96.70;;;;;;4961037;28;20150;-70
2023/04/21 03:44:29;;;;;;;4.45;2.20;;;13.60;96.70;;;;;;4960634;28;20058;-71
2023/04/21 03:47:02;;;;;;;2.72;1.80;;;13.60;96.70;;;;;;4943553;28;20382;-70
2023/04/21 03:49:33;;;;;;;4.15;2.55;;;13.70;96.70;;;;;;4984238;28;20058;-70
2023/04/21 03:52:01;;;;;;;2.38;2.08;;;13.70;96.70;;;;;;4964174;28;20043;-70
2023/04/21 03:54:29;;;;;;;3.15;1.80;;;13.70;96.70;;;;;;4964485;28;20126;-70
2023/04/21 03:56:57;;;;;;;3.85;2.35;;;13.70;96.70;;;;;;4963935;28;20053;-70
2023/04/21 03:59:25;;;;;;;3.08;2.55;;;13.70;96.70;;;;;;4962057;28;20046;-70
2023/04/21 04:01:53;;;;;;;3.90;2.85;;;13.60;96.70;;;;;;4964342;28;20077;-70
2023/04/21 04:04:21;;;;;;;3.80;2.90;;;13.60;96.70;;;;;;4962411;28;20053;-71
2023/04/21 04:06:51;;;;;;;4.45;3.50;;;13.50;96.70;;;;;;4962139;28;20529;-70
2023/04/21 04:09:19;;;;;;;9.63;4.32;;;13.50;96.70;;;;;;4963031;28;20050;-70
2023/04/21 04:11:48;;;;;;;4.07;3.67;;;13.50;96.70;;;;;;4962862;28;20046;-70
2023/04/21 04:14:16;;;;;;;6.30;4.07;;;13.40;96.70;;;;;;4962263;28;20049;-70
2023/04/21 04:16:44;;;;;;;6.05;4.43;;;13.50;96.70;;;;;;4961561;28;20035;-71
2023/04/21 04:19:12;;;;;;;8.20;4.47;;;13.30;96.70;;;;;;4962891;28;20893;-71
2023/04/21 04:21:40;;;;;;;7.80;5.05;;;13.10;96.70;;;;;;4962178;28;20109;-71
2023/04/21 04:24:10;;;;;;;5.85;4.22;;;13.20;96.70;;;;;;4960482;28;20054;-70
2023/04/21 04:26:38;;;;;;;4.80;4.05;;;13.30;96.70;;;;;;4965336;28;20076;-70
2023/04/21 04:29:09;;;;;;;5.07;4.03;;;13.30;96.70;;;;;;4963323;28;20132;-70
2023/04/21 04:31:37;;;;;;;5.03;3.97;;;13.30;96.70;;;;;;4960673;28;20049;-70
2023/04/21 04:34:05;;;;;;;5.50;3.75;;;13.30;96.70;;;;;;4962439;28;20043;-70
2023/04/21 04:36:33;;;;;;;4.18;3.60;;;13.30;96.70;;;;;;4963364;28;20692;-70
2023/04/21 04:39:02;;;;;;;5.82;4.10;;;13.20;96.70;;;;;;4962818;28;20034;-70
2023/04/21 04:41:32;;;;;;;6.90;3.97;;;13.20;96.70;;;;;;4962457;28;20456;-70
2023/04/21 04:44:18;;;;;;;4.60;3.72;;;13.10;96.70;;;;;;4959130;28;20762;-70
2023/04/21 04:46:48;;;;;;;4.05;3.65;;;13.20;96.70;;;;;;4961773;28;20046;-70
2023/04/21 04:49:16;;;;;;;4.55;3.92;;;13.10;96.70;;;;;;4963279;28;20043;-70
2023/04/21 04:51:45;;;;;;;4.97;3.88;;;13.10;96.70;;;;;;4961033;28;20348;-70
2023/04/21 04:54:13;;;;;;;4.68;4.18;;;13.20;96.70;;;;;;4962084;28;20046;-70
2023/04/21 04:56:42;;;;;;;4.40;3.70;;;13.20;96.70;;;;;;4963021;28;20079;-70
2023/04/21 04:59:11;;;;;;;5.93;4.63;;;13.20;96.70;;;;;;4963443;28;20519;-70
2023/04/21 05:01:40;;;;;;;6.72;4.20;;;13.20;96.70;;;;;;4947457;28;20047;-74
2023/04/21 05:04:08;;;;;;;6.00;4.70;;;13.20;96.70;;;;;;4962509;28;20492;-73
2023/04/21 05:06:36;;;;;;;5.95;4.63;;;13.20;96.70;;;;;;4961232;28;20085;-70
2023/04/21 05:09:04;;;;;;;5.35;4.75;;;13.30;96.70;;;;;;4958609;28;20046;-70
2023/04/21 05:11:32;;;;;;;6.93;5.03;;;13.40;96.70;;;;;;4962417;28;20126;-70
2023/04/21 05:14:03;;;;;;;6.95;5.18;;;13.50;96.70;;;;;;4961508;28;20401;-70
2023/04/21 05:16:30;;;;;;;7.43;5.78;;;13.50;96.70;;;;;;4964504;28;20051;-70
2023/04/21 05:19:00;;;;;;;8.55;4.75;;;13.40;96.70;;;;;;4967828;28;20148;-70
2023/04/21 05:21:28;;;;;;;5.10;4.57;;;13.40;96.70;;;;;;4949929;28;20047;-69
2023/04/21 05:23:56;;;;;;;7.05;4.78;;;13.40;96.70;;;;;;4966910;28;20043;-69
2023/04/21 05:26:26;;;;;;;6.25;5.05;;;13.50;96.70;;;;;;4963097;28;20555;-69
2023/04/21 05:28:55;;;;;;;10.20;5.18;;;13.60;96.70;;;;;;4964113;28;20169;-69
2023/04/21 05:31:24;;;;;;;12.18;5.60;;;13.50;96.70;;;;;;4965386;28;20479;-69
2023/04/21 05:33:52;;;;;;;11.50;5.50;;;13.50;96.70;;;;;;4965198;28;20171;-69
2023/04/21 05:36:20;;;;;;;8.23;5.03;;;13.40;96.70;;;;;;4966961;28;20045;-69
2023/04/21 05:38:49;;;;;;;5.75;4.50;;;13.40;96.70;;;;;;4966909;28;20517;-69
2023/04/21 05:41:17;;;;;;;9.02;5.20;;;13.50;96.70;;;;;;4966990;28;20126;-69
2023/04/21 05:43:46;;;;;;;8.25;5.10;;;13.50;96.70;;;;;;4966452;28;20548;-69
2023/04/21 05:46:14;;;;;;;13.98;5.88;;;13.60;96.70;;;;;;4965932;28;20475;-69
2023/04/21 05:48:43;;;;;;;9.15;5.53;;;13.60;96.70;;;;;;4964594;28;20057;-69
2023/04/21 05:51:14;;;;;;;8.13;5.90;;;13.60;96.70;;;;;;4965079;28;20055;-69
2023/04/21 05:53:43;;;;;;;8.65;5.50;;;13.80;96.70;;;;;;4965555;28;20471;-69
2023/04/21 05:56:11;;;;;;;11.05;5.63;;;13.90;96.70;;;;;;4966739;28;20512;-69
2023/04/21 05:58:40;;;;;;;6.90;4.93;;;14.00;96.70;;;;;;4965573;28;20761;-69
2023/04/21 06:01:08;;;;;;;15.52;5.10;;;14.00;96.70;;;;;;4964702;28;20049;-69
2023/04/21 06:03:36;;;;;;;8.13;5.10;;;13.90;96.70;;;;;;4965644;28;20481;-69
2023/04/21 06:06:12;;;;;;;20.40;5.30;;;13.50;96.70;;;;;;4964250;28;20202;-69
2023/04/21 06:08:40;;;;;;;10.63;4.85;;;13.40;96.70;;;;;;4966072;28;20390;-69
2023/04/21 06:11:08;;;;;;;10.23;4.35;;;13.30;96.70;;;;;;4965053;28;20499;-69
2023/04/21 06:13:36;;;;;;;7.35;4.47;;;13.30;96.70;;;;;;4965845;28;20057;-69
2023/04/21 06:16:06;;;;;;;6.75;4.20;;;13.30;96.70;;;;;;4963411;28;20084;-69
2023/04/21 06:18:34;;;;;;;8.10;3.80;;;13.30;96.70;;;;;;4966772;28;20040;-70
2023/04/21 06:21:02;;;;;;;7.82;4.00;;;13.30;96.70;;;;;;4965614;28;20134;-69
2023/04/21 06:23:32;;;;;;;7.78;4.45;;;13.30;96.70;;;;;;4964702;28;20042;-69
2023/04/21 06:26:03;;;;;;;9.02;4.78;;;13.30;96.70;;;;;;4966458;28;20050;-69
2023/04/21 06:28:31;;;;;;;15.35;5.47;;;13.20;96.70;;;;;;4964895;28;20053;-69
2023/04/21 06:30:59;;;;;;;7.25;4.72;;;13.30;96.70;;;;;;4965711;28;20526;-69
2023/04/21 06:33:27;;;;;;;9.50;5.75;;;13.40;96.70;;;;;;4963718;28;20395;-69
2023/04/21 06:35:55;;;;;;;8.27;5.75;;;13.70;96.70;;;;;;4947256;28;20051;-69
2023/04/21 06:38:23;;;;;;;7.72;5.47;;;13.70;96.70;;;;;;4965272;28;20097;-69
2023/04/21 06:40:52;;;;;;;8.50;6.13;;;13.80;96.70;;;;;;4964173;28;20125;-70
2023/04/21 06:43:20;;;;;;;8.32;7.13;;;13.90;96.70;;;;;;4965253;28;20097;-70
2023/04/21 06:45:48;;;;;;;9.77;8.13;;;14.00;96.70;;;;;;4963003;28;20035;-69
2023/04/21 06:48:16;;;;;;;10.25;8.20;;;14.20;96.70;;;;;;4963121;28;20046;-69
2023/04/21 06:50:45;;;;;;;8.45;7.65;;;14.10;96.70;;;;;;4963700;28;20563;-69
2023/04/21 06:53:13;;;;;;;7.97;7.18;;;14.00;96.70;;;;;;4963040;28;20050;-69
2023/04/21 06:55:41;;;;;;;9.35;7.82;;;14.10;96.70;;;;;;4947798;28;20055;-69
2023/04/21 06:58:10;;;;;;;9.90;7.70;;;14.20;96.70;;;;;;4965187;28;20050;-70
2023/04/21 07:00:38;;;;;;;9.60;7.70;;;14.10;96.70;;;;;;4964302;28;20413;-69
2023/04/21 07:03:07;;;;;;;10.80;8.40;;;14.20;96.70;;;;;;4963787;28;20488;-69
2023/04/21 07:05:35;;;;;;;9.40;8.00;;;14.20;96.70;;;;;;4963137;28;20113;-71
2023/04/21 07:08:03;;;;;;;8.45;7.60;;;14.40;96.70;;;;;;4962929;28;20073;-69
2023/04/21 07:10:30;;;;;;;9.13;8.18;;;14.60;96.70;;;;;;4964359;28;20038;-70
2023/04/21 07:12:58;;;;;;;11.02;9.27;;;14.50;96.70;;;;;;4964528;28;20062;-69
2023/04/21 07:15:28;;;;;;;11.23;9.68;;;14.60;96.70;;;;;;4963230;28;20070;-69
2023/04/21 07:17:57;;;;;;;12.00;9.18;;;14.70;96.70;;;;;;4958003;28;20050;-69
2023/04/21 07:20:26;;;;;;;8.57;7.68;;;14.80;96.70;;;;;;4964628;28;21093;-73
2023/04/21 07:22:54;;;;;;;8.32;7.50;;;14.90;96.70;;;;;;4961609;28;20459;-69
2023/04/21 07:25:21;;;;;;;9.88;7.85;;;15.00;96.70;;;;;;4966634;28;20476;-69
2023/04/21 07:27:49;;;;;;;9.88;8.88;;;15.10;96.70;;;;;;4960816;28;20042;-69
2023/04/21 07:30:17;;;;;;;10.50;9.40;;;15.10;96.70;;;;;;4962027;28;20082;-69
2023/04/21 07:32:46;;;;;;;11.85;9.98;;;15.00;96.70;;;;;;4964007;28;20498;-69
2023/04/21 07:35:15;;;;;;;15.70;12.13;;;15.20;96.70;;;;;;4964752;28;20057;-69
2023/04/21 07:37:43;;;;;;;18.30;14.93;;;15.10;96.70;;;;;;4961713;28;20078;-69
2023/04/21 07:40:14;;;;;;;18.27;15.25;;;15.10;96.70;;;;;;4966338;28;20118;-69
2023/04/21 07:42:42;;;;;;;17.52;13.90;;;15.20;96.70;;;;;;4971291;28;20050;-69
2023/04/21 07:45:11;;;;;;;14.45;12.95;;;15.20;96.70;;;;;;4961637;28;20038;-69
2023/04/21 07:47:39;;;;;;;14.48;12.10;;;15.20;96.70;;;;;;4964367;28;20042;-69
2023/04/21 07:50:09;;;;;;;15.77;12.52;;;15.30;96.70;;;;;;4962620;28;20043;-69
2023/04/21 07:52:37;;;;;;;12.70;11.32;;;15.40;96.70;;;;;;4963589;28;21007;-69
2023/04/21 07:55:05;;;;;;;13.07;11.40;;;15.30;96.70;;;;;;4962986;28;20053;-69
2023/04/21 07:57:37;;;;;;;14.10;11.80;;;15.30;96.70;;;;;;4962061;28;20149;-69
2023/04/21 08:00:06;;;;;;;12.80;11.43;;;15.20;96.70;;;;;;4956718;28;21078;-68
2023/04/21 08:02:40;;;;;;;11.95;10.07;;;15.20;96.70;;;;;;4959765;28;20571;-69
2023/04/21 08:05:10;;;;;;;10.55;9.45;;;15.30;96.70;;;;;;4963221;28;20521;-69
2023/04/21 08:07:38;;;;;;;10.07;9.02;;;15.30;96.70;;;;;;4964052;28;20035;-69
2023/04/21 08:10:07;;;;;;;9.43;8.52;;;15.40;96.70;;;;;;4961795;28;20062;-68
2023/04/21 08:12:35;;;;;;;10.32;9.18;;;15.40;96.70;;;;;;4962278;28;20055;-69
2023/04/21 08:15:07;;;;;;;9.50;8.60;;;15.40;96.70;;;;;;4961566;28;20047;-69
2023/04/21 08:17:35;;;;;;;9.90;8.85;;;15.50;96.70;;;;;;4963928;28;20070;-69
2023/04/21 08:20:03;;;;;;;10.48;9.00;;;15.50;96.70;;;;;;4964165;28;20417;-69
2023/04/21 08:22:36;;;;;;;10.77;9.20;;;15.60;96.70;;;;;;4963899;28;20038;-69
2023/04/21 08:25:04;;;;;;;11.18;10.00;;;15.60;96.70;;;;;;4963533;28;20214;-69
2023/04/21 08:27:32;;;;;;;10.98;9.55;;;15.70;96.70;;;;;;4961693;28;20601;-70
2023/04/21 08:30:00;;;;;;;11.45;10.25;;;15.80;96.70;;;;;;4965592;28;20575;-69
2023/04/21 08:32:28;;;;;;;10.48;9.25;;;15.80;96.70;;;;;;4964030;28;20042;-69
2023/04/21 08:34:56;;;;;;;11.55;9.98;;;15.80;96.70;;;;;;4962528;28;20054;-69
2023/04/21 08:37:24;;;;;;;9.73;8.73;;;15.80;96.70;;;;;;4962863;28;20122;-69
2023/04/21 08:39:53;;;;;;;9.57;8.68;;;15.90;96.70;;;;;;4968745;28;20125;-69
2023/04/21 08:42:21;;;;;;;10.55;9.00;;;16.00;96.70;;;;;;4955543;28;20603;-70
2023/04/21 08:44:49;;;;;;;9.52;8.63;;;16.20;96.70;;;;;;4962500;28;20043;-70
2023/04/21 08:47:19;;;;;;;9.68;8.32;;;16.20;96.70;;;;;;4962320;28;20074;-70
2023/04/21 08:49:50;;;;;;;9.00;8.10;;;16.30;96.70;;;;;;4964002;28;20050;-70
2023/04/21 08:52:18;;;;;;;8.77;7.88;;;16.30;96.70;;;;;;4964830;28;20051;-69
2023/04/21 08:54:46;;;;;;;10.60;8.00;;;16.40;96.70;;;;;;4981954;28;20050;-70
2023/04/21 08:57:16;;;;;;;9.35;7.70;;;16.60;96.70;;;;;;4965764;28;20141;-69
2023/04/21 08:59:45;;;;;;;7.82;7.05;;;16.70;96.70;;;;;;4967997;28;20050;-70
2023/04/21 09:02:14;;;;;;;9.75;7.60;;;16.70;96.70;;;;;;4967935;28;20059;-69
2023/04/21 09:04:45;;;;;;;7.53;6.60;;;16.70;96.70;;;;;;4967665;28;20385;-69
2023/04/21 09:07:31;;;;;;;6.63;5.82;;;16.80;96.70;;;;;;4966735;28;20563;-70
2023/04/21 09:10:00;;;;;;;7.00;5.32;;;16.90;96.70;;;;;;4962860;28;20053;-69
2023/04/21 09:12:30;;;;;;;6.88;5.18;;;17.00;96.70;;;;;;4966389;28;20042;-69
2023/04/21 09:14:59;;;;;;;5.13;4.68;;;17.00;96.70;;;;;;4963972;28;20050;-71
2023/04/21 09:17:31;;;;;;;5.70;5.20;;;17.10;96.70;;;;;;4966109;28;20042;-69
2023/04/21 09:20:13;;;;;;;6.43;5.70;;;17.30;96.70;;;;;;4946858;28;20109;-70
2023/04/21 09:22:42;;;;;;;5.90;5.30;;;17.40;96.70;;;;;;4964717;28;20516;-69
2023/04/21 09:25:14;;;;;;;5.50;5.00;;;17.40;96.70;;;;;;4965507;28;20153;-69
2023/04/21 09:27:45;;;;;;;6.13;4.72;;;17.60;96.70;;;;;;4965445;28;20512;-69
2023/04/21 09:30:17;;;;;;;5.55;5.00;;;17.70;96.70;;;;;;4965969;28;20043;-69
2023/04/21 09:32:45;;;;;;;5.75;5.15;;;17.80;96.70;;;;;;4966676;28;20057;-69
2023/04/21 09:35:13;;;;;;;6.10;4.82;;;17.80;96.70;;;;;;4967064;28;20476;-69
2023/04/21 09:37:43;;;;;;;7.13;4.53;;;17.90;96.70;;;;;;4964017;28;20113;-71
2023/04/21 09:40:16;;;;;;;4.47;4.07;;;18.00;96.70;;;;;;4959060;28;20046;-69
2023/04/21 09:42:46;;;;;;;5.38;4.32;;;18.20;96.70;;;;;;4966249;28;20057;-69
2023/04/21 09:45:15;;;;;;;4.30;3.90;;;18.30;96.70;;;;;;4966198;28;20039;-70
2023/04/21 09:48:04;;;;;;;4.47;3.40;;;18.40;96.70;;;;;;4980818;28;20053;-70
2023/04/21 09:50:32;;;;;;;4.55;3.40;;;18.60;96.70;;;;;;4966104;28;20050;-69
2023/04/21 09:53:24;;;;;;;3.97;3.38;;;18.60;96.70;;;;;;4963114;28;20053;-70
2023/04/21 09:55:55;;;;;;;4.88;2.97;;;18.60;96.70;;;;;;4964866;28;20042;-69
2023/04/21 09:58:31;;;;;;;3.95;2.70;;;18.50;96.70;;;;;;4958382;28;20101;-70
2023/04/21 10:00:59;;;;;;;2.70;2.45;;;18.60;96.70;;;;;;4965724;28;20400;-69
2023/04/21 10:03:28;;;;;;;2.85;2.30;;;18.60;96.70;;;;;;4963284;28;20110;-69
2023/04/21 10:05:57;;;;;;;2.47;2.17;;;18.80;96.70;;;;;;4965806;28;20054;-70
2023/04/21 10:08:26;;;;;;;2.42;2.05;;;19.00;96.70;;;;;;4965283;28;20377;-69
2023/04/21 10:10:54;;;;;;;2.63;1.85;;;19.10;96.70;;;;;;4964492;28;20061;-70
2023/04/21 10:13:24;;;;;;;2.95;2.45;;;19.20;96.70;;;;;;4966353;28;20057;-69
2023/04/21 10:16:02;;;;;;;3.97;2.85;;;19.50;96.70;;;;;;4965415;28;20121;-69
2023/04/21 10:18:30;;;;;;;2.92;2.58;;;19.60;96.70;;;;;;4965525;28;20078;-69
2023/04/21 10:21:01;;;;;;;4.53;2.55;;;19.70;96.70;;;;;;4965248;28;20043;-70
2023/04/21 10:23:31;;;;;;;2.92;2.38;;;19.80;96.70;;;;;;4965313;28;20047;-69
2023/04/21 10:26:08;;;;;;;4.38;2.35;;;19.80;96.70;;;;;;4964185;28;20128;-69
2023/04/21 10:28:43;;;;;;;2.40;2.15;;;19.70;96.70;;;;;;4965422;28;20133;-71
2023/04/21 10:31:28;;;;;;;1.90;1.30;;;20.00;96.70;;;;;;4964287;28;20054;-70
2023/04/21 10:34:27;;;;;;;1.88;1.73;;;20.10;96.70;;;;;;4966348;28;20507;-69
2023/04/21 10:37:14;;;;;;;2.67;1.83;;;20.20;96.70;;;;;;4956417;28;20051;-70
2023/04/21 10:39:44;;;;;;;2.33;1.90;;;20.20;96.70;;;;;;4968891;28;20500;-70
2023/04/21 10:42:24;;;;;;;2.13;1.80;;;20.30;96.70;;;;;;4966884;28;20050;-70
2023/04/21 10:45:04;;;;;;;1.73;1.50;;;20.20;96.70;;;;;;4972928;28;20066;-70
2023/04/21 10:47:37;;;;;;;1.80;1.63;;;20.30;96.70;;;;;;4965719;28;20046;-69
2023/04/21 10:50:13;;;;;;;2.55;2.10;;;20.60;96.70;;;;;;4960191;28;20055;-69
2023/04/21 10:52:50;;;;;;;2.20;1.73;;;20.60;96.70;;;;;;4964410;28;20588;-69
2023/04/21 10:55:19;;;;;;;1.98;1.80;;;20.80;96.70;;;;;;4963916;28;20523;-69
2023/04/21 10:57:48;;;;;;;2.50;2.30;;;20.70;96.70;;;;;;4965252;28;20066;-69
2023/04/21 11:00:20;;;;;;;3.90;2.55;;;20.60;96.70;;;;;;4965251;28;20054;-70
2023/04/21 11:02:59;;;;;;;3.17;2.50;;;20.80;96.70;;;;;;4962668;28;20046;-70
2023/04/21 11:05:29;;;;;;;2.85;1.88;;;21.10;96.70;;;;;;4965054;28;20402;-69
2023/04/21 11:08:06;;;;;;;3.47;2.00;;;21.20;96.70;;;;;;4947443;28;20133;-69
2023/04/21 11:10:50;;;;;;;2.03;1.50;;;21.30;96.70;;;;;;4964267;28;20074;-70
2023/04/21 11:13:21;;;;;;;2.22;1.50;;;21.50;96.70;;;;;;4955716;28;20575;-69
2023/04/21 11:16:21;;;;;;;1.65;1.55;;;21.60;96.70;;;;;;4964927;28;20632;-70
2023/04/21 11:18:49;;;;;;;2.10;1.63;;;21.80;96.70;;;;;;4884231;29;20517;-69
2023/04/21 11:21:21;;;;;;;1.38;0.90;;;21.70;96.70;;;;;;4884994;29;20812;-69
2023/04/21 11:23:51;;;;;;;1.88;1.20;;;21.60;96.70;;;;;;4885286;29;20746;-70
2023/04/21 11:26:30;;;;;;;1.52;1.00;;;21.40;96.70;;;;;;4886073;29;20072;-70
2023/04/21 11:29:00;;;;;;;2.65;1.30;;;21.30;96.70;;;;;;4868041;29;20152;-70
2023/04/21 11:31:35;;;;;;;1.98;1.42;;;21.60;96.70;;;;;;4885240;29;20092;-70
2023/04/21 11:34:04;;;;;;;1.65;1.52;;;21.90;96.70;;;;;;4885253;29;21103;-70
2023/04/21 11:36:32;;;;;;;1.20;1.10;;;22.10;96.70;;;;;;4884994;29;20145;-69
2023/04/21 11:39:06;;;;;;;1.60;1.27;;;22.20;96.70;;;;;;4884558;29;20064;-70
2023/04/21 11:41:35;;;;;;;2.70;1.00;;;22.40;96.70;;;;;;4870065;29;20551;-69
2023/04/21 11:44:31;;;;;;;1.67;1.17;;;22.70;96.70;;;;;;4885240;29;20523;-71
2023/04/21 11:47:11;;;;;;;3.13;1.20;;;23.00;96.70;;;;;;4853555;29;20736;-69
2023/04/21 11:49:45;;;;;;;1.75;0.98;;;23.20;96.70;;;;;;4901175;28;20047;-70
2023/04/21 11:52:24;;;;;;;1.10;1.00;;;23.30;96.70;;;;;;4961980;28;20112;-69
2023/04/21 11:54:57;;;;;;;1.30;1.02;;;23.20;96.70;;;;;;4962157;28;20070;-70
2023/04/21 11:57:26;;;;;;;1.13;0.98;;;23.00;96.70;;;;;;4964125;28;21335;-71
2023/04/21 12:00:02;;;;;;;2.50;0.98;;;23.00;96.70;;;;;;4964475;28;20047;-70
2023/04/21 12:02:33;;;;;;;1.58;1.10;;;23.10;96.70;;;;;;4964218;28;20409;-70
2023/04/21 12:05:03;;;;;;;1.95;0.85;;;23.00;96.70;;;;;;4962680;28;20058;-69
2023/04/21 12:07:33;;;;;;;1.35;1.00;;;22.80;96.70;;;;;;4962366;28;20062;-70
2023/04/21 12:10:02;;;;;;;1.60;1.10;;;22.90;96.70;;;;;;4963899;28;20049;-70
2023/04/21 12:12:30;;;;;;;1.17;1.02;;;23.00;96.70;;;;;;4963724;28;20112;-69
2023/04/21 12:15:03;;;;;;;1.77;1.20;;;23.20;96.70;;;;;;4964175;28;20038;-70
2023/04/21 12:17:37;;;;;;;1.65;1.27;;;23.40;96.70;;;;;;4962426;28;20056;-70
2023/04/21 12:20:06;;;;;;;1.65;0.75;;;23.70;96.70;;;;;;4939456;28;20051;-70
2023/04/21 12:22:34;;;;;;;1.20;0.70;;;23.80;96.70;;;;;;4963197;28;20822;-70
2023/04/21 12:25:03;;;;;;;1.20;0.80;;;23.60;96.70;;;;;;4961694;28;20054;-70
2023/04/21 12:27:31;;;;;;;0.80;0.50;;;23.80;96.70;;;;;;4965068;28;20043;-70
2023/04/21 12:29:59;;;;;;;1.33;0.70;;;23.90;96.70;;;;;;4959745;28;20049;-70
2023/04/21 12:32:27;;;;;;;0.90;0.70;;;23.90;96.70;;;;;;4962791;28;20046;-70
2023/04/21 12:34:57;;;;;;;1.75;1.20;;;23.80;96.70;;;;;;4962037;28;20058;-70
2023/04/21 12:37:25;;;;;;;1.90;1.08;;;24.10;96.70;;;;;;4962984;28;20066;-70
2023/04/21 12:39:53;;;;;;;1.85;1.23;;;24.10;96.70;;;;;;4969410;28;20077;-70
2023/04/21 12:42:21;;;;;;;1.50;1.27;;;24.10;96.70;;;;;;4963990;28;20046;-70
2023/04/21 12:44:49;;;;;;;1.08;0.90;;;24.30;96.70;;;;;;4963136;28;20769;-70
2023/04/21 12:47:16;;;;;;;0.90;0.73;;;24.30;96.70;;;;;;4963444;28;20095;-70
2023/04/21 12:49:45;;;;;;;2.45;0.90;;;24.30;96.70;;;;;;4961846;28;20061;-70
2023/04/21 12:52:14;;;;;;;1.80;0.70;;;24.40;96.70;;;;;;4962670;28;20116;-70
2023/04/21 12:54:43;;;;;;;3.63;1.00;;;24.30;96.70;;;;;;4964167;28;20042;-70
2023/04/21 12:57:12;;;;;;;3.47;1.10;;;24.20;96.70;;;;;;4961632;28;20050;-70
2023/04/21 12:59:40;;;;;;;2.72;1.23;;;23.90;96.70;;;;;;4945997;28;20078;-69